• Join FlightAware (Why Join?)
  • Login
  • US Flag 
09:51AM EDT


 

Airport Tracker/Info


-or-


 

Live Flight TrackerFlight Track Log ✈ UAL4191 ✈ 29-Apr-2013 ✈ KIAH - KCHS

Flight Track Log - Related Links

Times and Time Zones

All times are in EDT time to prevent confusion due to time zone crossing. See the UAL4191 flight status page for this flight to view local times or setup timezone preferences in your user account.

Time Position Orientation Groundspeed Altitude Reporting Facility
EDT Latitude Longitude Course Direction KTS MPH feet Rate Location/Type
03:33PM 29.9550 -95.3394 106° East 184 212 700  Level Houston Center
03:35PM 29.9383 -95.2717 106° East 235 270 2,700 1,500 Climbing Houston Center
03:36PM 29.9436 -95.1914 86° East 255 293 4,000 960 Climbing Houston Center
03:37PM 29.9531 -95.1131 82° East 250 288 4,700 1,740 Climbing Houston Center
03:38PM 29.9378 -95.0186 101° East 264 304 7,800 2,520 Climbing Houston Center
03:39PM 29.9292 -94.9347 97° East 270 311 10,100 1,440 Climbing Houston Center
03:40PM 29.9178 -94.8311 97° East 311 358 10,800 1,080 Climbing Houston Center
03:41PM 29.9058 -94.7133 97° East 362 417 12,400 1,560 Climbing Houston Center
03:42PM 29.8922 -94.5956 98° East 369 425 14,100 1,500 Climbing Houston Center
03:43PM 29.8800 -94.4728 97° East 379 436 15,500 1,440 Climbing Houston Center
03:44PM 29.8653 -94.3472 98° East 391 450 17,100 1,860 Climbing Houston Center
03:45PM 29.8572 -94.1969 93° East 394 453 19,400 2,160 Climbing Houston Center
03:46PM 29.8539 -94.0756 92° East 388 447 21,600 1,680 Climbing Houston Center
03:47PM 29.8619 -93.9569 85° East 384 442 22,900 1,200 Climbing Houston Center
03:48PM 29.8764 -93.8303 82° East 393 452 24,100 1,500 Climbing Houston Center
03:49PM 29.8894 -93.7053 83° East 396 456 26,100 1,920 Climbing Houston Center
03:50PM 29.9039 -93.5608 83° East 386 444 28,100 1,380 Climbing Houston Center
03:51PM 29.9167 -93.4394 83° East 384 442 29,000 420 Climbing Houston Center
03:52PM 29.9297 -93.3092 83° East 409 471 29,000  Level Houston Center
03:53PM 29.9442 -93.1683 83° East 440 506 29,000 600 Level Houston Center
03:54PM 29.9617 -92.9942 83° East 459 528 30,300 1,860 Climbing Houston Center
03:55PM 29.9739 -92.8642 84° East 415 478 32,900 1,740 Climbing Houston Center
03:56PM 29.9839 -92.7383 85° East 398 458 34,000 780 Climbing Houston Center
03:57PM 29.9942 -92.6100 85° East 402 463 34,600 480 Climbing Houston Center
03:58PM 30.0044 -92.4769 85° East 414 476 35,100 540 Climbing Houston Center
03:59PM 30.0172 -92.3106 85° East 434 499 35,800 540 Climbing Houston Center
04:01PM 30.0289 -92.1700 84° East 440 506 36,300 480 Climbing Houston Center
04:02PM 30.0386 -92.0272 85° East 447 514 36,900 300 Climbing Houston Center
04:03PM 30.0511 -91.8814 84° East 455 524 37,000  Climbing Houston Center
04:04PM 30.0628 -91.7103 85° East 472 543 37,000  Level Houston Center
04:05PM 30.0750 -91.5672 84° East 489 563 37,000  Level Houston Center
04:06PM 30.0853 -91.4072 86° East 500 575 37,000  Level Houston Center
04:07PM 30.0989 -91.2125 85° East 508 585 37,000  Level Houston Center
04:08PM 30.1103 -91.0475 85° East 516 594 37,000  Level Houston Center
04:09PM 30.1328 -90.8853 81° East 512 589 37,000  Level Houston Center
04:10PM 30.1717 -90.7286 74° East 508 585 37,000  Level Houston Center
04:11PM 30.2100 -90.5722 74° East 506 582 37,000  Level Houston Center
04:12PM 30.2469 -90.4150 75° East 508 585 37,000  Level Houston Center
04:13PM 30.2819 -90.2228 78° East 510 587 37,000  Level Houston Center
04:14PM 30.3131 -90.0625 77° East 511 588 37,000  Level Houston Center
04:15PM 30.3414 -89.9139 78° East 510 587 37,000  Level Houston Center
04:16PM 30.3786 -89.7208 77° East 514 592 37,000  Level Houston Center
04:17PM 30.4089 -89.5642 77° East 516 594 37,000  Level Houston Center
04:18PM 30.4381 -89.4050 78° East 509 586 37,000 -60 Level Houston Center
04:19PM 30.4686 -89.2442 78° East 511 588 36,900  Descending Houston Center
04:20PM 30.4961 -89.0822 79° East 512 589 37,000  Climbing Houston Center
04:21PM 30.5267 -88.9183 78° East 509 586 37,000  Level Houston Center
04:22PM 30.5619 -88.7250 78° East 512 589 37,000  Level Houston Center
04:23PM 30.5908 -88.5650 78° East 512 589 37,000  Level Houston Center
04:24PM 30.6203 -88.4050 78° East 512 589 37,000  Level Houston Center
04:25PM 30.6494 -88.2447 78° East 513 590 37,000  Level Houston Center
04:26PM 30.6831 -88.0533 78° East 512 589 37,000  Level Houston Center
04:27PM 30.7119 -87.8881 78° East 516 594 37,000  Level Houston Center
04:28PM 30.7353 -87.7547 78° East 507 583 37,000  Level Jacksonville Center
04:29PM 30.7622 -87.5919 79° East 502 578 37,000  Level Jacksonville Center
04:30PM 30.8061 -87.4150 74° East 510 587 37,000  Level Jacksonville Center
04:31PM 30.8431 -87.2572 75° East 510 587 37,000  Level Jacksonville Center
04:32PM 30.8839 -87.0994 73° East 510 587 37,000  Level Jacksonville Center
04:33PM 30.9225 -86.9389 74° East 510 587 37,000  Level Jacksonville Center
04:34PM 30.9586 -86.7831 75° East 510 587 37,000  Level Jacksonville Center
04:35PM 30.9947 -86.6244 75° East 505 581 37,000  Level Jacksonville Center
04:36PM 31.0306 -86.4683 75° East 505 581 37,000  Level Jacksonville Center
04:37PM 31.0614 -86.3289 75° East 505 581 37,000  Level Jacksonville Center
04:38PM 31.0992 -86.1703 74° East 505 581 37,000  Level Jacksonville Center
04:39PM 31.1344 -86.0136 75° East 505 581 37,000  Level Jacksonville Center
04:40PM 31.1717 -85.8547 75° East 505 581 37,000 -60 Level Jacksonville Center
04:41PM 31.2131 -85.6883 74° East 510 587 36,900  Descending Jacksonville Center
04:42PM 31.2478 -85.5242 76° East 510 587 37,000  Climbing Jacksonville Center
04:43PM 31.2864 -85.3650 74° East 510 587 36,900  Descending Jacksonville Center
04:44PM 31.3208 -85.2078 76° East 504 580 37,000  Climbing Jacksonville Center
04:45PM 31.3550 -85.0456 76° East 509 586 37,000 -240 Level Jacksonville Center
04:46PM 31.3889 -84.8833 76° East 509 586 36,600 -540 Descending Jacksonville Center
04:47PM 31.4267 -84.7258 74° East 509 586 36,000 -300 Descending Jacksonville Center
04:48PM 31.4603 -84.5731 76° East 504 580 36,000  Level Jacksonville Center
04:49PM 31.4956 -84.4106 76° East 504 580 36,000 -180 Level Jacksonville Center
04:50PM 31.5286 -84.2575 76° East 498 573 35,700 -540 Descending Jacksonville Center
04:51PM 31.5617 -84.1019 76° East 487 560 35,000 -600 Descending Jacksonville Center
04:53PM 31.6275 -83.7828 76° East 489 563 33,900 -660 Descending Atlanta Center
04:54PM 31.6644 -83.6314 74° East 501 577 33,000 -480 Descending Atlanta Center
04:56PM 31.7019 -83.4347 77° East 486 559 33,000 -420 Level Jacksonville Center
04:57PM 31.7339 -83.2786 76° East 486 559 32,200 -900 Descending Jacksonville Center
04:58PM 31.7656 -83.1222 77° East 486 559 31,200 -1,140 Descending Jacksonville Center
04:59PM 31.7969 -82.9708 76° East 486 559 30,000 -1,560 Descending Jacksonville Center
05:00PM 31.8261 -82.8289 76° East 464 534 28,100 -1,500 Descending Jacksonville Center
05:01PM 31.8572 -82.6797 76° East 458 527 27,000 -1,200 Descending Jacksonville Center
05:02PM 31.8864 -82.5378 76° East 453 521 25,800 -1,020 Descending Jacksonville Center
05:03PM 31.9131 -82.3983 77° East 448 516 25,000 -900 Descending Jacksonville Center
05:04PM 31.9375 -82.2708 77° East 441 507 24,100 -540 Descending Jacksonville Center
05:05PM 31.9700 -82.1064 77° East 458 527 24,000 -600 Descending Jacksonville Center
05:06PM 32.0025 -81.9764 74° East 431 496 23,000 -540 Descending Jacksonville Center
05:07PM 32.0644 -81.8825 52° Northeast 393 452 23,000  Level Jacksonville Center
05:08PM 32.1469 -81.7614 51° Northeast 423 487 23,000  Level Jacksonville Center
05:09PM 32.2211 -81.6550 50° Northeast 451 519 23,000  Level Jacksonville Center
05:10PM 32.3136 -81.5208 51° Northeast 465 535 23,000  Level Jacksonville Center
05:11PM 32.3978 -81.3942 52° Northeast 479 551 23,000  Level Jacksonville Center
05:12PM 32.4736 -81.2844 51° Northeast 479 551 23,000  Level Jacksonville Center
05:13PM 32.5575 -81.1622 51° Northeast 479 551 23,000 -1,020 Level Jacksonville Center
05:14PM 32.6456 -81.0250 53° Northeast 474 545 21,000 -2,580 Descending Jacksonville Center
05:15PM 32.7253 -80.9122 50° Northeast 464 534 17,900 -2,580 Descending Jacksonville Center
05:16PM 32.7944 -80.8019 53° Northeast 433 498 15,900 -1,260 Descending Jacksonville Center
05:17PM 32.8194 -80.6753 77° East 392 451 15,400 -600 Descending Jacksonville Center
05:18PM 32.8339 -80.5514 82° East 380 437 14,700 -1,380 Descending Jacksonville Center
05:19PM 32.8442 -80.4447 83° East 350 403 12,700 -2,100 Descending Jacksonville Center
05:20PM 32.8569 -80.3503 81° East 331 381 10,600 -2,220 Descending Jacksonville Center
05:21PM 32.8572 -80.2539 90° East 306 352 8,300 -2,340 Descending Jacksonville Center
05:22PM 32.8489 -80.1653 96° East 282 325 6,000 -2,400 Descending Jacksonville Center
05:23PM 32.9108 -80.1236 29° Northeast 230 265 3,600 -2,400 Descending Jacksonville Center